Ridge, North Carolina
Current Conditions -  °F | °C
As of 1:54 PM on Saturday 20 Dec 2014 (Local Time) from KAKH Reporting Station
Overcast Overcast  
Wind Chill: 45°   Ceiling: 2300
Heat Index: 45°   Visibility: 9mi
Dew Point: 35°   Wind: 0mph
Humidity: 68%   Direction: NA
Pressure: 30.2"   Gusts: NA
Location:  35.2205°N, 81.2501°W
Report Text: KAKH 201854Z AUTO 00000KT 9SM OVC023 07/02 A3020 RMK AO2 SLP228 T00720017
Loading
Personal Weather Stations






























Interactive Weather Map New forecast layout! Learn more

10-Day Weather Forecast

Advertisements
Track Severe Weather on mobile